createdAt,value
2023-06-27T00:01:24.014Z,100377.72
2023-06-27T00:04:47.878Z,100369.94
2023-06-27T00:08:10.633Z,100375.44
2023-06-27T00:11:33.692Z,100366.06
2023-06-27T00:14:57.155Z,100353.81
2023-06-27T00:18:22.774Z,100351.41
2023-06-27T00:21:47.188Z,100355.22
2023-06-27T00:25:11.763Z,100356.28
2023-06-27T00:28:34.627Z,100347.84
2023-06-27T00:31:58.609Z,100348.16
2023-06-27T00:35:21.266Z,100352.69
2023-06-27T00:38:45.651Z,100349.31
2023-06-27T00:42:09.236Z,100334.06
2023-06-27T00:45:32.178Z,100336.56
2023-06-27T00:48:54.933Z,100334.34
2023-06-27T00:52:17.893Z,100340.78
2023-06-27T00:55:42.804Z,100341.84
2023-06-27T00:59:06.687Z,100337.63
2023-06-27T01:02:29.462Z,100332.69
2023-06-27T01:05:53.924Z,100327.03
2023-06-27T01:09:27.637Z,100328.16
2023-06-27T01:12:58.994Z,100330.28
2023-06-27T01:16:24.415Z,100332.19
2023-06-27T01:19:48.699Z,100329.63
2023-06-27T01:23:19.444Z,100330.72
2023-06-27T01:26:43.627Z,100325.75
2023-06-27T01:30:07.005Z,100328.50
2023-06-27T01:33:35.597Z,100321.53
2023-06-27T01:37:03.965Z,100322.69
2023-06-27T01:40:31.332Z,100322.06
2023-06-27T01:43:57.060Z,100319.63
2023-06-27T01:47:21.149Z,100311.84
2023-06-27T01:50:43.995Z,100316.13
2023-06-27T01:54:06.964Z,100315.22
2023-06-27T01:57:30.050Z,100315.22
2023-06-27T02:00:54.555Z,100308.25
2023-06-27T02:04:17.270Z,100308.25
2023-06-27T02:07:40.230Z,100308.16
2023-06-27T02:11:02.980Z,100311.53
2023-06-27T02:14:25.939Z,100306.91
2023-06-27T02:17:50.045Z,100307.44
2023-06-27T02:21:12.682Z,100300.25
2023-06-27T02:24:35.536Z,100285.69
2023-06-27T02:27:58.803Z,100305.59
2023-06-27T02:31:21.747Z,100288.78
2023-06-27T02:34:46.045Z,100289.22
2023-06-27T02:38:09.304Z,100290.75
2023-06-27T02:41:32.368Z,100282.75
2023-06-27T02:44:55.221Z,100293.47
2023-06-27T02:48:18.499Z,100289.53
2023-06-27T02:51:42.684Z,100282.84
2023-06-27T02:55:05.537Z,100288.84
2023-06-27T02:58:28.290Z,100285.91
2023-06-27T03:01:51.570Z,100293.59
2023-06-27T03:05:14.607Z,100284.56
2023-06-27T03:08:39.508Z,100294.06
2023-06-27T03:12:02.363Z,100300.91
2023-06-27T03:15:25.221Z,100301.75
2023-06-27T03:18:47.975Z,100286.56
2023-06-27T03:22:10.841Z,100287.97
2023-06-27T03:25:35.237Z,100263.94
2023-06-27T03:28:58.603Z,100290.47
2023-06-27T03:32:21.296Z,100283.50
2023-06-27T03:35:44.320Z,100277.22
2023-06-27T03:39:07.378Z,100286.22
2023-06-27T03:42:31.357Z,100282.25
2023-06-27T03:45:54.005Z,100276.16
2023-06-27T03:49:16.964Z,100280.63
2023-06-27T03:52:40.029Z,100278.31
2023-06-27T03:56:04.118Z,100286.69
2023-06-27T03:59:28.196Z,100273.16
2023-06-27T04:02:50.768Z,100280.34
2023-06-27T04:06:13.090Z,100287.13
2023-06-27T04:09:36.147Z,100289.25
2023-06-27T04:13:00.038Z,100282.88
2023-06-27T04:16:24.015Z,100283.97
2023-06-27T04:19:46.667Z,100286.41
2023-06-27T04:23:10.338Z,100282.75
2023-06-27T04:26:33.334Z,100284.16
2023-06-27T04:29:56.255Z,100274.19
2023-06-27T04:33:20.454Z,100264.56
2023-06-27T04:36:43.910Z,100267.91
2023-06-27T04:40:08.006Z,100254.47
2023-06-27T04:43:31.468Z,100254.97
2023-06-27T04:46:55.551Z,100262.91
2023-06-27T04:50:20.903Z,100250.94
2023-06-27T04:53:44.953Z,100246.72
2023-06-27T04:57:13.269Z,100246.69
2023-06-27T05:00:36.698Z,100249.28
2023-06-27T05:04:06.118Z,100243.81
2023-06-27T05:07:30.246Z,100249.50
2023-06-27T05:10:53.378Z,100240.06
2023-06-27T05:14:16.319Z,100243.81
2023-06-27T05:17:39.328Z,100246.94
2023-06-27T05:21:02.037Z,100242.44
2023-06-27T05:24:26.561Z,100247.97
2023-06-27T05:27:49.177Z,100240.38
2023-06-27T05:31:11.883Z,100240.69
2023-06-27T05:34:34.682Z,100230.47
2023-06-27T05:37:57.653Z,100232.81
2023-06-27T05:41:21.843Z,100233.91
2023-06-27T05:44:44.702Z,100235.13
2023-06-27T05:48:08.220Z,100236.41
2023-06-27T05:51:30.920Z,100227.22
2023-06-27T05:54:54.077Z,100223.34
2023-06-27T05:58:18.264Z,100225.31
2023-06-27T06:01:41.068Z,100224.81
2023-06-27T06:05:05.205Z,100218.16
2023-06-27T06:08:28.072Z,100214.44
2023-06-27T06:11:51.435Z,100216.19
2023-06-27T06:15:17.127Z,100217.59
2023-06-27T06:18:41.354Z,100224.88
2023-06-27T06:22:04.399Z,100228.13
2023-06-27T06:25:27.156Z,100217.91
2023-06-27T06:28:50.424Z,100217.28
2023-06-27T06:32:14.651Z,100219.50
2023-06-27T06:35:37.722Z,100208.50
2023-06-27T06:39:00.531Z,100220.53
2023-06-27T06:42:23.481Z,100223.22
2023-06-27T06:45:46.586Z,100219.19
2023-06-27T06:49:11.457Z,100211.50
2023-06-27T06:52:34.785Z,100215.84
2023-06-27T06:55:57.785Z,100218.38
2023-06-27T06:59:21.970Z,100212.91
2023-06-27T07:02:45.026Z,100213.06
2023-06-27T07:06:09.736Z,100209.38
2023-06-27T07:09:32.992Z,100212.91
2023-06-27T07:12:56.049Z,100225.09
2023-06-27T07:16:19.254Z,100213.94
2023-06-27T07:19:44.528Z,100215.56
2023-06-27T07:23:08.416Z,100211.22
2023-06-27T07:26:31.796Z,100209.56
2023-06-27T07:30:01.396Z,100203.41
2023-06-27T07:33:33.057Z,100201.34
2023-06-27T07:36:55.936Z,100202.19
2023-06-27T07:40:25.520Z,100203.97
2023-06-27T07:43:53.093Z,100198.03
2023-06-27T07:48:05.655Z,100195.97
2023-06-27T07:51:28.804Z,100199.06
2023-06-27T07:54:54.595Z,100191.06
2023-06-27T07:58:20.980Z,100195.94
2023-06-27T08:01:43.915Z,100193.09
2023-06-27T08:05:08.391Z,100205.13
2023-06-27T08:08:38.098Z,100194.19
2023-06-27T08:12:05.156Z,100195.78
2023-06-27T08:15:34.978Z,100187.63
2023-06-27T08:18:57.934Z,100189.97
2023-06-27T08:22:21.020Z,100182.78
2023-06-27T08:25:44.161Z,100186.63
2023-06-27T08:29:07.019Z,100182.81
2023-06-27T08:32:31.740Z,100178.00
2023-06-27T08:35:55.696Z,100186.25
2023-06-27T08:39:18.458Z,100180.03
2023-06-27T08:42:46.012Z,100176.47
2023-06-27T08:46:15.227Z,100170.16
2023-06-27T08:49:46.689Z,100173.63
2023-06-27T08:53:19.075Z,100186.16
2023-06-27T08:56:52.492Z,100185.22
2023-06-27T09:00:20.885Z,100176.63
2023-06-27T09:03:46.320Z,100181.38
2023-06-27T09:07:12.359Z,100175.78
2023-06-27T09:10:38.058Z,100178.00
2023-06-27T09:14:01.495Z,100171.13
2023-06-27T09:17:24.265Z,100176.91
2023-06-27T09:20:47.720Z,100170.72
2023-06-27T09:24:15.901Z,100167.81
2023-06-27T09:27:39.881Z,100166.97
2023-06-27T09:31:03.065Z,100173.66
2023-06-27T09:34:30.517Z,100174.19
2023-06-27T09:41:20.639Z,100169.59
2023-06-27T09:44:43.702Z,100161.63
2023-06-27T09:48:11.122Z,100177.16
2023-06-27T09:51:34.439Z,100170.34
2023-06-27T09:54:58.712Z,100174.34
2023-06-27T09:58:31.201Z,100169.19
2023-06-27T10:01:55.323Z,100167.28
2023-06-27T10:05:18.792Z,100161.94
2023-06-27T10:08:42.538Z,100163.59
2023-06-27T10:12:06.408Z,100156.78
2023-06-27T10:15:30.694Z,100151.78
2023-06-27T10:18:54.388Z,100161.03
2023-06-27T10:22:19.163Z,100156.53
2023-06-27T10:25:42.650Z,100159.34
2023-06-27T10:29:16.238Z,100162.00
2023-06-27T10:32:46.830Z,100155.03
2023-06-27T10:36:13.018Z,100150.13
2023-06-27T10:39:38.053Z,100143.28
2023-06-27T10:43:00.467Z,100141.16
2023-06-27T10:46:27.770Z,100155.03
2023-06-27T10:49:55.293Z,100156.13
2023-06-27T10:53:19.793Z,100134.22
2023-06-27T10:56:43.981Z,100144.31
2023-06-27T11:00:15.768Z,100150.84
2023-06-27T11:03:41.144Z,100146.44
2023-06-27T11:07:06.233Z,100149.16
2023-06-27T11:10:30.958Z,100150.56
2023-06-27T11:13:54.745Z,100150.41
2023-06-27T11:17:20.568Z,100148.38
2023-06-27T11:20:44.093Z,100144.66
2023-06-27T11:24:10.373Z,100134.41
2023-06-27T11:27:33.845Z,100136.16
2023-06-27T11:31:02.038Z,100131.38
2023-06-27T11:34:25.596Z,100133.22
2023-06-27T11:37:48.260Z,100133.22
2023-06-27T11:41:12.757Z,100140.97
2023-06-27T11:44:36.535Z,100127.13
2023-06-27T11:47:59.725Z,100130.25
2023-06-27T11:51:22.339Z,100135.19
2023-06-27T11:54:52.462Z,100129.69
2023-06-27T11:58:16.949Z,100134.41
2023-06-27T12:01:43.674Z,100136.09
2023-06-27T12:05:06.562Z,100128.75
2023-06-27T12:08:34.461Z,100131.53
2023-06-27T12:11:59.590Z,100128.13
2023-06-27T12:15:24.349Z,100126.91
2023-06-27T12:18:48.939Z,100115.75
2023-06-27T12:22:12.229Z,100119.63
2023-06-27T12:25:34.964Z,100112.81
2023-06-27T12:28:58.864Z,100121.47
2023-06-27T12:32:23.258Z,100112.16
2023-06-27T12:35:45.993Z,100112.88
2023-06-27T12:39:08.859Z,100111.84
2023-06-27T12:42:32.069Z,100104.84
2023-06-27T12:46:02.234Z,100091.19
2023-06-27T12:49:26.737Z,100094.63
2023-06-27T12:52:50.816Z,100085.38
2023-06-27T12:56:14.081Z,100084.28
2023-06-27T12:59:36.949Z,100080.78
2023-06-27T13:03:12.266Z,100077.28
2023-06-27T13:06:42.003Z,100075.22
2023-06-27T13:10:05.384Z,100058.59
2023-06-27T13:13:28.072Z,100063.22
2023-06-27T13:16:53.028Z,100063.47
2023-06-27T13:20:18.452Z,100065.81
2023-06-27T13:23:42.982Z,100049.97
2023-06-27T13:27:06.410Z,100046.66
2023-06-27T13:30:29.919Z,100053.50
2023-06-27T13:33:52.945Z,100054.78
2023-06-27T13:37:16.035Z,100052.81
2023-06-27T13:40:40.382Z,100039.13
2023-06-27T13:44:03.455Z,100040.19
2023-06-27T13:47:26.394Z,100038.44
2023-06-27T13:50:50.499Z,100029.75
2023-06-27T13:54:13.058Z,100030.78
2023-06-27T13:57:37.551Z,100035.44
2023-06-27T14:01:02.783Z,100034.59
2023-06-27T14:04:26.562Z,100034.41
2023-06-27T14:07:49.489Z,100032.56
2023-06-27T14:11:15.846Z,100023.22
2023-06-27T14:14:42.380Z,100019.63
2023-06-27T14:18:05.114Z,100022.66
2023-06-27T14:21:30.026Z,100016.31
2023-06-27T14:24:52.787Z,100004.19
2023-06-27T14:28:15.535Z,100014.13
2023-06-27T14:31:40.116Z,100012.69
2023-06-27T14:35:03.196Z,99998.13
2023-06-27T14:38:26.259Z,99999.72
2023-06-27T14:41:49.111Z,99994.22
2023-06-27T14:45:13.017Z,99999.84
2023-06-27T14:48:37.075Z,100000.81
2023-06-27T14:51:59.729Z,100005.00
2023-06-27T14:55:22.373Z,100002.47
2023-06-27T14:58:45.334Z,99998.44
2023-06-27T15:02:08.601Z,100001.84
2023-06-27T15:05:32.786Z,100006.25
2023-06-27T15:08:55.740Z,100000.63
2023-06-27T15:12:19.108Z,100003.56
2023-06-27T15:15:41.966Z,100011.81
2023-06-27T15:19:05.030Z,100016.78
2023-06-27T15:22:29.117Z,100010.84
2023-06-27T15:25:51.874Z,100016.59
2023-06-27T15:29:14.536Z,100007.75
2023-06-27T15:32:37.606Z,99996.31
2023-06-27T15:36:00.437Z,100007.31
2023-06-27T15:39:24.741Z,100004.25
2023-06-27T15:42:47.378Z,100008.97
2023-06-27T15:46:10.548Z,100004.38
2023-06-27T15:49:35.554Z,100004.31
2023-06-27T15:52:58.406Z,100007.84
2023-06-27T15:56:22.385Z,100000.19
2023-06-27T15:59:45.041Z,100011.53
2023-06-27T16:03:07.767Z,100015.97
2023-06-27T16:06:36.709Z,100019.94
2023-06-27T16:09:59.594Z,100013.31
2023-06-27T16:13:24.356Z,100016.22
2023-06-27T16:16:47.921Z,100014.19
2023-06-27T16:20:11.818Z,100018.31
2023-06-27T16:23:34.664Z,100015.50
2023-06-27T16:26:57.823Z,100020.06
2023-06-27T16:30:22.073Z,100019.44
2023-06-27T16:33:44.972Z,100027.81
2023-06-27T16:37:08.124Z,100021.44
2023-06-27T16:40:32.005Z,100024.25
2023-06-27T16:43:54.885Z,100018.25
2023-06-27T16:47:19.460Z,100027.69
2023-06-27T16:50:43.148Z,100021.03
2023-06-27T16:54:06.508Z,100031.28
2023-06-27T16:57:31.917Z,100028.75
2023-06-27T17:00:54.876Z,100027.66
2023-06-27T17:04:18.971Z,100026.00
2023-06-27T17:07:44.104Z,100025.53
2023-06-27T17:11:07.652Z,100024.50
2023-06-27T17:14:30.721Z,100027.91
2023-06-27T17:17:53.724Z,100038.59
2023-06-27T17:21:19.513Z,100037.22
2023-06-27T17:25:51.062Z,100034.97
2023-06-27T17:29:15.560Z,100038.06
2023-06-27T17:32:38.039Z,100033.00
2023-06-27T17:36:01.273Z,100028.53
2023-06-27T17:39:25.966Z,100030.38
2023-06-27T17:42:53.674Z,100029.25
2023-06-27T17:46:16.908Z,100017.19
2023-06-27T17:49:40.057Z,100021.38
2023-06-27T17:53:06.397Z,100032.78
2023-06-27T17:56:31.005Z,100032.53
2023-06-27T17:59:53.693Z,100036.25
2023-06-27T18:03:16.675Z,100032.28
2023-06-27T18:06:39.279Z,100030.78
2023-06-27T18:10:02.557Z,100025.06
2023-06-27T18:13:26.816Z,100034.19
2023-06-27T18:16:49.463Z,100037.13
2023-06-27T18:20:12.828Z,100042.66
2023-06-27T18:23:35.493Z,100031.34
2023-06-27T18:26:58.443Z,100034.63
2023-06-27T18:30:34.959Z,100044.75
2023-06-27T18:33:58.393Z,100039.97
2023-06-27T18:37:21.176Z,100043.03
2023-06-27T18:40:47.536Z,100050.22
2023-06-27T18:44:11.189Z,100031.41
2023-06-27T18:47:35.412Z,100019.41
2023-06-27T18:50:58.505Z,100035.56
2023-06-27T18:54:21.565Z,100054.19
2023-06-27T18:57:44.826Z,100055.16
2023-06-27T19:01:07.727Z,100063.63
2023-06-27T19:04:32.255Z,100071.91
2023-06-27T19:07:54.878Z,100072.88
2023-06-27T19:11:17.760Z,100055.06
2023-06-27T19:14:41.058Z,100070.38
2023-06-27T19:18:04.040Z,100070.66
2023-06-27T19:21:28.723Z,100060.91
2023-06-27T19:24:51.680Z,100075.84
2023-06-27T19:28:14.448Z,100080.72
2023-06-27T19:31:37.379Z,100082.78
2023-06-27T19:35:00.454Z,100073.38
2023-06-27T19:38:24.536Z,100083.69
2023-06-27T19:41:47.196Z,100094.03
2023-06-27T19:45:11.373Z,100090.19
2023-06-27T19:48:34.325Z,100104.91
2023-06-27T19:51:58.316Z,100099.97
2023-06-27T19:55:22.604Z,100099.91
2023-06-27T19:58:45.579Z,100104.41
2023-06-27T20:06:55.494Z,100106.22
2023-06-27T20:10:20.353Z,100100.25
2023-06-27T20:13:46.076Z,100114.13
2023-06-27T20:17:10.053Z,100109.66
2023-06-27T20:20:32.812Z,100090.88
2023-06-27T20:23:55.665Z,100097.19
2023-06-27T20:27:18.735Z,100104.72
2023-06-27T20:30:44.753Z,100096.53
2023-06-27T20:34:07.618Z,100092.22
2023-06-27T20:37:30.368Z,100105.63
2023-06-27T20:40:52.816Z,100094.06
2023-06-27T20:44:15.990Z,100092.94
2023-06-27T20:47:40.811Z,100086.25
2023-06-27T20:51:03.743Z,100096.63
2023-06-27T20:54:26.899Z,100096.63
2023-06-27T20:57:49.750Z,100092.00
2023-06-27T21:01:13.039Z,100091.63
2023-06-27T21:04:37.106Z,100087.44
2023-06-27T21:07:59.958Z,100084.31
2023-06-27T21:11:22.922Z,100076.09
2023-06-27T21:14:47.315Z,100084.06
2023-06-27T21:18:10.187Z,100087.13
2023-06-27T21:21:34.785Z,100085.72
2023-06-27T21:24:57.440Z,100075.69
2023-06-27T21:28:20.891Z,100079.44
2023-06-27T21:31:43.879Z,100076.53
2023-06-27T21:35:07.639Z,100078.91
2023-06-27T21:38:31.620Z,100074.16
2023-06-27T21:41:54.700Z,100067.03
2023-06-27T21:45:17.750Z,100068.88
2023-06-27T21:48:40.178Z,100066.06
2023-06-27T21:52:02.725Z,100085.84
2023-06-27T21:55:27.315Z,100078.59
2023-06-27T21:58:49.767Z,100070.47
2023-06-27T22:02:12.628Z,100075.38
2023-06-27T22:05:35.276Z,100066.81
2023-06-27T22:08:58.234Z,100066.38
2023-06-27T22:12:22.728Z,100071.25
2023-06-27T22:15:45.275Z,100069.13
2023-06-27T22:19:07.928Z,100053.75
2023-06-27T22:22:30.778Z,100083.19
2023-06-27T22:25:53.640Z,100071.31
2023-06-27T22:29:18.034Z,100074.50
2023-06-27T22:32:40.649Z,100076.84
2023-06-27T22:36:03.437Z,100093.09
2023-06-27T22:39:26.291Z,100091.38
2023-06-27T22:42:49.261Z,100074.31
2023-06-27T22:46:13.151Z,100086.44
2023-06-27T22:49:36.335Z,100079.59
2023-06-27T22:52:59.148Z,100079.75
2023-06-27T22:56:22.313Z,100081.66
2023-06-27T22:59:45.171Z,100083.03
2023-06-27T23:03:09.392Z,100102.78
2023-06-27T23:06:32.839Z,100098.72
2023-06-27T23:09:55.789Z,100101.28
2023-06-27T23:13:18.645Z,100109.69
2023-06-27T23:16:41.400Z,100099.44
2023-06-27T23:20:08.658Z,100109.53
2023-06-27T23:23:31.928Z,100109.31
2023-06-27T23:26:59.549Z,100115.00
2023-06-27T23:30:23.878Z,100115.50
2023-06-27T23:33:46.747Z,100104.97
2023-06-27T23:37:12.253Z,100105.94
2023-06-27T23:40:34.920Z,100103.66
2023-06-27T23:43:57.763Z,100109.34
2023-06-27T23:47:20.317Z,100102.72
2023-06-27T23:50:43.800Z,100116.63
2023-06-27T23:54:07.862Z,100122.16
2023-06-27T23:57:30.619Z,100110.28
